Hulbert, MI (49748)

1:09 PM EST on December 25, 2014 (GMT -0500)
Luce County | Change Station
CLOSE
Current Station
Airport
Location: Newberry,
Elevation: 869 ft
Nearby Weather Stations

Elev 869 ft 46.31 °N, 85.46 °W | Updated 14 minutes ago

Overcast
Overcast
34 °F
Feels Like 25 °F
N
12
Wind Variable Wind from WSW
Gusts 16 mph

Today
High -- | Low -- °F
--% Chance of Precip.
Yesterday
High -- | Low -- °F
Precip. -- in
8:22 AM 4:58 PM
Waxing Crescent, 18% visible
Pressure 29.69 in
Visibility 10.0 miles
Clouds Overcast 1800 ft
Windchill 25 °F
Dew Point 30 °F
Humidity 87%
Rainfall 0.00 in
Snow Depth Not available.
UV 0 out of 12
Pollen .10 out of 12
Air Quality Not available.
Flu Activity Not available.
METAR KERY 251755Z AUTO 25010G14KT 10SM OVC018 01/M01 A2969 RMK AO2 T00101010 10010 21002

More Conditions Fewer Conditions

Pressure 29.69 in
Visibility 10.0 miles
Clouds Overcast 1800 ft
Windchill 25 °F
Dew Point 30 °F
Humidity 87%
Rainfall 0.00 in
Snow Depth Not available.
UV 0 out of 12
Pollen .10 out of 12
Air Quality Not available.
Flu Activity Not available.
METAR KERY 251755Z AUTO 25010G14KT 10SM OVC018 01/M01 A2969 RMK AO2 T00101010 10010 21002

More Conditions Fewer Conditions

Nowcast | as of 1:00 PM EST on December 25, 2014

At 2 PM...mostly cloudy. Temperature 36. At 4 PM...cloudy. Temperature 34. West winds 11 mph. At 6 PM...cloudy. Temperature 33. Cloudy.

×

10-Day Weather Forecast

Almanac

Astronomy

Dec. 25, 2014 Rise Set
Actual Time
Civil Twilight
Nautical Twilight
Astronomical Twilight
Moon
Length of Visible Light
Length of Day
Tomorrow will be .
, % of the Moon is Illuminated

Today's Extremes

State Highs State Lows

Community

WunderPhotos

Upload Photos

1,780,351 photos uploaded!

WunderBlogs® & News

Nearby

Air Quality

  Air Quality AQ Index Pollutant
Not available.

Snow Depth

Station Depth Elevation

Earthquake Activity

City Distance Mag. Time & Date
Minimum magnitude displayed is 2.5.

Coastal Water Temperatures

Place Temperature

Nearby Weather Stations